Decoded Metar for UNBB (BARNAUL in RUSSIA) (IATA:BAX) | Meteo·Mobile Aviation Weather
aviador You're here:

UNBB Decoded Metar

BARNAUL in RUSSIA
Report Time2019-10-22 14:30:00
UTC Time2019-10-22 14:45:23
Flight Rules vfr VFR
Wind200° at 12 kt
W.Decomp.*RWY 24: 8.0 kt HW 8.9 kt LCW
Visibility9999 m
Phenomena:N/A
Clouds:N/A
Expected CloudBase > 2,000 ft AGL from Temp-Dew spread
CeilingNone
Temp-6°C (ISA -19)
Dew Point-11°C (68% RH)
AAT-13.4°C
QNH1030 hPa
Density Alt-2,093 ft
Elevation837 ft
Report Wrong Elevation
Raw Report
UNBB 221430Z 20006MPS CAVOK M06/M11 Q1030 R24/CLRD66 NOSIG RMK
QFE750=

Extra information for UNBB:More info

Metar Taf Metar & Taf Last 4 Metars F.Rules Stats Wind Profile Meteogram Temp Stats Airport Information Weather charts Add Link Nearby VenuesMetar ALERT Operation Metar Decoded Social comments